Veurne, Belgium
Current Conditions -  °F | °C
As of 9:25 PM on Monday 22 Dec 2014 (Local Time) from EBFN Reporting Station
Broken Clouds Broken Clouds  
Wind Chill: 12°   Ceiling: 19000
Heat Index: 12°   Visibility: 6mi
Dew Point:   Wind: 21mph
Humidity: 77%   Direction: 240°WSW
Pressure: 30.12"   Gusts: NA
Location:  51.07°N, 2.66°E
Report Text: EBFN 222025Z 24018KT 9999 FEW020 SCT040 BKN190 12/08 Q1020 BLU
Loading
Personal Weather Stations






























Interactive Weather Map New forecast layout! Learn more

10-Day Weather Forecast

Advertisements
Track Severe Weather on mobile